Latest Weather Observations for Friendly Beaches

IDT60801

Issued at 4:31 am EDT Thursday 2 March 2017 (issued every 30 minutes, with the page automatically refreshed every 10 minutes)

About weather observations | Map of weather stations | Latest weather observations for TAS | Other Formats
Station Details ID: 092114 Name: FRIENDLY BEACHES Lat: -42.00 Lon: 148.28 Height: 55.0 m
Data from the previous 72 hours. | See also: Recent months at Friendly Beaches
Date/Time
EDT
Temp
°C
App
Temp
°C
Dew
Point
°C
Rel
Hum
%
Delta-T
°C
Wind Press
QNH
hPa
Press
MSL
hPa
Rain since
9am
mm
Dir  Spd
km/h
Gust
km/h
Spd
kts
Gust
kts
02/04:30am 19.6 19.3 15.5 77 2.4 N 11 15 6 8 1018.8 1018.8 0.0
02/04:00am 19.7 19.5 15.8 78 2.3 N 11 20 6 11 1019.2 1019.2 0.0
02/03:30am 19.8 19.4 16.1 79 2.2 N 13 19 7 10 1019.5 1019.5 0.0
02/03:00am 19.8 19.4 16.3 80 2.1 N 13 20 7 11 1019.7 1019.7 0.0
02/02:30am 19.8 19.4 16.3 80 2.1 N 13 19 7 10 1020.1 1020.0 0.0
02/02:00am 20.1 19.3 16.1 78 2.4 N 15 20 8 11 1020.1 1020.0 0.0
02/01:30am 19.8 19.2 16.6 82 1.9 N 15 24 8 13 1020.4 1020.3 0.0
02/01:00am 20.0 19.0 16.6 81 2.1 N 17 26 9 14 1020.6 1020.5 0.0
02/12:30am 19.3 19.5 16.7 85 1.6 N 11 17 6 9 1020.8 1020.7 0.0
02/12:00am 20.1 19.6 16.9 82 1.9 N 15 22 8 12 1020.8 1020.7 0.0
 
Date/Time
EDT
Temp
°C
App
Temp
°C
Dew
Point
°C
Rel
Hum
%
Delta-T
°C
Wind Press
QNH
hPa
Press
MSL
hPa
Rain since
9am
mm
Dir  Spd
km/h
Gust
km/h
Spd
kts
Gust
kts
01/11:30pm 19.9 19.5 17.1 84 1.7 N 15 20 8 11 1021.1 1021.0 0.0
01/11:00pm 19.9 19.6 17.3 85 1.6 N 15 24 8 13 1021.1 1021.0 0.0
01/10:30pm 19.9 19.4 17.7 87 1.4 N 17 24 9 13 1021.2 1021.1 0.0
01/10:00pm 19.6 21.1 17.6 88 1.2 N 6 13 3 7 1021.6 1021.5 0.0
01/09:30pm 19.3 19.9 17.6 90 1.0 NNE 11 22 6 12 1021.2 1021.1 0.0
01/09:00pm 19.8 19.0 17.9 89 1.2 NNE 19 30 10 16 1020.9 1020.8 0.0
01/08:30pm 19.8 18.9 18.1 90 1.1 NNE 20 30 11 16 1020.6 1020.5 0.0
01/08:00pm 19.8 18.6 18.3 91 0.9 NNE 22 32 12 17 1020.4 1020.3 0.0
01/07:30pm 20.2 19.0 18.3 89 1.2 NNE 22 32 12 17 1020.3 1020.2 0.0
01/07:00pm 21.0 20.2 18.4 85 1.6 NNE 20 35 11 19 1020.2 1020.1 0.0
01/06:30pm 21.7 20.2 18.5 82 2.0 NNE 24 37 13 20 1020.2 1020.1 0.0
01/06:00pm 22.6 21.1 18.6 78 2.5 NNE 24 37 13 20 1020.4 1020.3 0.0
01/05:30pm 22.8 21.3 18.6 77 2.7 NNE 24 37 13 20 1020.4 1020.3 0.0
01/05:00pm 23.1 21.3 18.8 77 2.7 NNE 26 37 14 20 1020.7 1020.6 0.0
01/04:30pm 23.8 22.2 19.1 75 3.0 NNE 26 39 14 21 1020.8 1020.7 0.0
01/04:00pm 24.6 23.4 19.2 72 3.5 NNE 24 39 13 21 1021.0 1020.9 0.0
01/03:30pm 24.4 22.4 19.2 73 3.3 NNE 28 39 15 21 1021.2 1021.1 0.0
01/03:00pm 24.4 22.7 19.0 72 3.4 NNE 26 39 14 21 1021.4 1021.3 0.0
01/02:30pm 24.9 23.3 19.3 71 3.6 NNE 26 37 14 20 1021.9 1021.8 0.0
01/02:00pm 25.5 24.8 19.4 69 3.9 NNE 22 39 12 21 1021.9 1021.8 0.0
01/01:30pm 25.2 24.8 19.3 70 3.8 NNE 20 39 11 21 1022.1 1022.0 0.0
01/01:00pm 25.0 24.5 19.1 70 3.8 NNE 20 33 11 18 1022.3 1022.2 0.0
01/12:30pm 24.3 22.9 18.9 72 3.4 NNE 24 35 13 19 1022.5 1022.4 0.0
01/12:00pm 24.4 23.5 19.0 72 3.4 NNE 22 33 12 18 1022.7 1022.6 0.0
01/11:30am 24.4 24.0 18.8 71 3.6 NNE 19 32 10 17 1022.9 1022.8 0.0
01/11:00am 24.0 23.3 18.6 72 3.4 NNE 20 28 11 15 1023.0 1022.9 0.0
01/10:30am 24.7 25.5 19.1 71 3.6 NNE 13 20 7 11 1023.2 1023.1 0.0
01/10:00am 23.4 24.3 18.3 73 3.2 NNE 11 19 6 10 1023.2 1023.1 0.0
01/09:30am 21.6 23.2 17.0 75 2.8 SE 4 7 2 4 1023.2 1023.1 0.0
01/09:00am 20.6 22.1 16.6 78 2.4 SSE 4 6 2 3 1023.2 1023.1 0.0
01/08:30am 19.1 20.3 16.0 82 1.8 SSE 4 6 2 3 1023.0 1022.9 0.0
01/08:00am 18.0 20.0 16.0 88 1.2 CALM 0 0 0 0 1022.8 1022.7 0.0
01/07:30am 17.0 18.7 15.3 90 1.0 CALM 0 2 0 1 1022.7 1022.6 0.0
01/07:00am 16.8 17.0 14.8 88 1.2 NNE 7 13 4 7 1022.4 1022.2 0.0
01/06:30am 16.8 17.2 15.2 90 0.9 NNE 7 7 4 4 1022.2 1022.0 0.0
01/06:00am 16.8 18.4 15.0 89 1.0 CALM 0 0 0 0 1022.1 1021.9 0.0
01/05:30am 17.2 18.8 15.0 87 1.3 CALM 0 0 0 0 1021.8 1021.6 0.0
01/05:00am 18.0 18.3 14.5 80 2.0 N 6 11 3 6 1021.7 1021.5 0.0
01/04:30am 18.8 18.4 15.3 80 2.1 N 11 17 6 9 1021.7 1021.5 0.0
01/04:00am 18.6 19.2 15.3 81 1.9 ESE 6 15 3 8 1021.9 1021.7 0.0
01/03:30am 19.5 19.0 15.8 79 2.2 N 13 20 7 11 1021.9 1021.7 0.0
01/03:00am 19.0 18.9 16.0 83 1.8 N 11 19 6 10 1022.1 1021.9 0.0
01/02:30am 19.0 19.4 16.2 84 1.7 N 9 15 5 8 1022.2 1022.0 0.0
01/02:00am 18.9 19.8 16.5 86 1.4 N 7 15 4 8 1022.4 1022.2 0.0
01/01:30am 18.6 19.0 16.2 86 1.4 NNE 9 17 5 9 1022.5 1022.3 0.0
01/01:00am 19.3 19.4 16.5 84 1.7 N 11 19 6 10 1022.6 1022.5 0.0
01/12:30am 19.0 19.2 16.8 87 1.3 NNE 11 17 6 9 1022.6 1022.5 0.0
01/12:00am 18.9 19.2 17.0 89 1.1 NNE 11 17 6 9 1022.6 1022.5 0.0
 
Date/Time
EDT
Temp
°C
App
Temp
°C
Dew
Point
°C
Rel
Hum
%
Delta-T
°C
Wind Press
QNH
hPa
Press
MSL
hPa
Rain since
9am
mm
Dir  Spd
km/h
Gust
km/h
Spd
kts
Gust
kts
28/11:30pm 18.9 19.7 17.2 90 1.0 NNE 9 15 5 8 1022.7 1022.6 0.0
28/11:00pm 19.3 20.1 17.4 89 1.2 N 9 19 5 10 1022.6 1022.5 0.0
28/10:30pm 18.9 19.7 17.4 91 0.9 NNE 9 15 5 8 1022.6 1022.5 0.0
28/10:00pm 19.1 20.3 17.4 90 1.0 NNE 7 13 4 7 1022.6 1022.5 0.0
28/09:30pm 19.6 21.0 17.7 89 1.2 N 7 15 4 8 1022.3 1022.1 0.0
28/09:00pm 19.4 20.3 17.5 89 1.2 NNE 9 15 5 8 1022.1 1021.9 0.0
28/08:30pm 19.9 20.2 17.9 88 1.2 NNE 13 24 7 13 1021.6 1021.4 0.0
28/08:00pm 19.7 19.2 17.8 89 1.2 NNE 17 26 9 14 1021.2 1021.0 0.0
28/07:30pm 20.3 19.5 17.9 86 1.5 NNE 19 30 10 16 1020.9 1020.7 0.0
28/07:00pm 21.3 20.2 17.7 80 2.2 NNE 20 33 11 18 1020.7 1020.5 0.0
28/06:30pm 22.0 20.2 17.8 77 2.6 NNE 24 39 13 21 1020.5 1020.3 0.0
28/06:00pm 22.8 20.6 17.9 74 3.1 NNE 26 44 14 24 1020.4 1020.2 0.0
28/05:34pm 23.4 20.8 17.8 71 3.5 NNE 28 48 15 26 1020.5 1020.3 0.0
28/05:30pm 23.5 21.3 17.9 71 3.5 NNE 26 43 14 23 1020.5 1020.3 0.0
28/05:00pm 23.7 20.8 17.9 70 3.6 NNE 30 52 16 28 1020.6 1020.4 0.0
28/04:30pm 24.8 22.5 18.5 68 4.0 NNE 28 46 15 25 1020.8 1020.6 0.0
28/04:00pm 24.4 21.6 18.3 69 3.8 N 30 52 16 28 1021.1 1020.9 0.0
28/03:46pm 24.9 22.7 18.6 68 4.0 N 28 48 15 26 1021.2 1021.0 0.0
28/03:30pm 25.6 23.7 18.5 65 4.5 NNE 26 43 14 23 1021.4 1021.2 0.0
28/03:00pm 25.7 23.6 18.9 66 4.3 NNE 28 41 15 22 1021.6 1021.4 0.0
28/02:30pm 25.9 24.3 19.3 67 4.3 NNE 26 39 14 21 1022.0 1021.8 0.0
28/02:10pm 25.1 22.8 18.5 67 4.2 NNE 28 54 15 29 1022.2 1022.0 0.0
28/02:00pm 25.7 24.0 18.9 66 4.3 NNE 26 41 14 22 1022.2 1022.0 0.0
28/01:30pm 24.4 22.2 18.8 71 3.6 NNE 28 39 15 21 1022.5 1022.3 0.0
28/01:00pm 24.6 22.8 18.8 70 3.7 NNE 26 39 14 21 1022.7 1022.6 0.0
28/12:30pm 23.9 21.8 18.1 70 3.6 NNE 26 37 14 20 1023.2 1023.1 0.0
28/12:00pm 23.9 21.8 18.1 70 3.6 NNE 26 37 14 20 1023.4 1023.3 0.0
28/11:30am 23.9 22.1 17.9 69 3.8 NNE 24 37 13 20 1023.5 1023.4 0.0
28/11:00am 23.4 21.9 17.8 71 3.5 NNE 22 35 12 19 1023.7 1023.6 0.0
28/10:30am 22.8 21.4 16.6 68 3.8 NE 19 28 10 15 1024.0 1023.9 0.0
28/10:00am 22.3 22.5 16.8 71 3.4 NNE 11 19 6 10 1024.2 1024.1 0.0
28/09:30am 21.0 21.3 14.9 68 3.6 NE 7 15 4 8 1024.4 1024.3 0.0
28/09:00am 20.2 20.3 13.9 67 3.6 NE 6 11 3 6 1024.5 1024.4 0.0
28/08:30am 19.1 18.9 13.7 71 3.1 NE 7 11 4 6 1024.6 1024.5 0.0
28/08:00am 17.4 17.1 13.3 77 2.3 NNE 7 11 4 6 1024.6 1024.5 0.0
28/07:30am 16.1 15.6 12.8 81 1.8 N 7 13 4 7 1024.4 1024.3 0.0
28/07:00am 15.4 14.9 12.7 84 1.5 NNW 7 11 4 6 1024.3 1024.2 0.0
28/06:30am 15.9 15.4 12.6 81 1.8 N 7 13 4 7 1024.1 1024.0 0.0
28/06:00am 16.6 15.4 12.9 79 2.1 N 11 17 6 9 1024.0 1023.9 0.0
28/05:30am 16.3 15.4 12.5 78 2.1 N 9 13 5 7 1024.0 1023.9 0.0
28/05:00am 16.5 15.6 12.5 77 2.2 N 9 15 5 8 1024.0 1023.9 0.0
28/04:30am 16.0 14.7 12.4 79 2.0 NNW 11 13 6 7 1024.1 1024.0 0.0
28/04:00am 16.0 14.7 12.4 79 2.0 N 11 15 6 8 1024.5 1024.4 0.0
28/03:30am 16.0 15.1 12.6 80 1.9 NNW 9 15 5 8 1024.7 1024.6 0.0
28/03:00am 15.9 15.0 12.6 81 1.8 N 9 17 5 9 1024.8 1024.7 0.0
28/02:30am 14.9 14.8 13.4 91 0.8 NNW 6 7 3 4 1024.9 1024.8 0.0
28/02:00am 15.7 16.1 12.6 82 1.7 NW 2 7 1 4 1025.0 1024.9 0.0
28/01:30am 16.0 16.7 15.5 97 0.3 NNW 6 15 3 8 1025.2 1025.1 0.0
28/01:00am 16.5 16.1 14.2 86 1.3 N 9 17 5 9 1025.4 1025.3 0.0
28/12:30am 16.8 15.4 13.5 81 1.9 N 13 26 7 14 1025.3 1025.2 0.0
28/12:00am 17.0 14.6 13.7 81 1.9 N 19 30 10 16 1025.3 1025.2 0.0
 
Date/Time
EDT
Temp
°C
App
Temp
°C
Dew
Point
°C
Rel
Hum
%
Delta-T
°C
Wind Press
QNH
hPa
Press
MSL
hPa
Rain since
9am
mm
Dir  Spd
km/h
Gust
km/h
Spd
kts
Gust
kts
27/11:30pm 17.1 14.6 14.2 83 1.7 N 20 35 11 19 1025.3 1025.2 0.0
27/11:00pm 17.4 14.7 15.6 89 1.1 N 24 43 13 23 1025.2 1025.1 0.0
27/10:30pm 17.6 14.2 13.7 78 2.2 N 24 41 13 22 1025.2 1025.1 0.0
27/10:18pm 17.7 13.6 13.8 78 2.2 N 28 48 15 26 1025.2 1025.1 0.0
27/10:00pm 17.6 13.8 13.7 78 2.2 N 26 44 14 24 1025.3 1025.2 0.0
27/09:30pm 17.7 14.2 13.4 76 2.4 N 24 39 13 21 1025.2 1025.1 0.0
27/09:00pm 17.8 14.4 12.5 71 2.9 NNE 22 35 12 19 1025.2 1025.1 0.0
27/08:30pm 17.8 14.6 13.1 74 2.6 N 22 30 12 16 1025.0 1024.9 0.0
27/08:00pm 17.9 13.9 14.2 79 2.1 NNE 28 43 15 23 1024.9 1024.8 0.0
27/07:30pm 18.2 14.1 13.9 76 2.5 NNE 28 48 15 26 1024.5 1024.4 0.0
27/07:00pm 18.8 15.1 13.9 73 2.8 NNE 26 43 14 23 1024.4 1024.3 0.0
27/06:35pm 19.5 15.4 13.9 70 3.2 NNE 28 46 15 25 1024.2 1024.1 0.0
27/06:30pm 19.5 15.1 14.1 71 3.1 NNE 30 44 16 24 1024.2 1024.1 0.0
27/06:04pm 20.1 16.7 17.7 86 1.5 NNE 32 52 17 28 1024.3 1024.2 0.0
27/06:00pm 20.2 16.7 17.4 84 1.7 NNE 32 48 17 26 1024.2 1024.1 0.0
27/05:49pm 20.7 17.4 16.1 75 2.8 NNE 28 48 15 26 1024.2 1024.1 0.0
27/05:30pm 21.2 17.6 15.3 69 3.5 NNE 28 43 15 23 1024.2 1024.1 0.0
27/05:00pm 21.2 16.9 15.3 69 3.5 NNE 32 50 17 27 1024.5 1024.4 0.0
27/04:54pm 20.9 16.5 15.2 70 3.4 NNE 32 50 17 27 1024.5 1024.4 0.0
27/04:30pm 21.2 16.6 14.6 66 3.9 NNE 32 50 17 27 1024.9 1024.8 0.0
27/04:00pm 22.5 18.4 14.9 62 4.5 NNE 30 46 16 25 1025.1 1025.0 0.0
27/03:49pm 22.1 18.0 15.0 64 4.2 NNE 30 48 16 26 1025.2 1025.1 0.0
27/03:30pm 22.9 19.7 15.2 62 4.6 NNE 26 39 14 21 1025.3 1025.2 0.0
27/03:00pm 22.9 19.6 15.0 61 4.7 NNE 26 39 14 21 1025.5 1025.4 0.0
27/02:30pm 23.1 20.2 15.2 61 4.7 NNE 24 41 13 22 1025.8 1025.7 0.0
27/02:00pm 23.0 20.3 14.6 59 4.9 NNE 22 37 12 20 1026.0 1025.9 0.0
27/01:30pm 23.3 19.7 14.3 57 5.3 NNE 26 37 14 20 1026.1 1026.0 0.0
27/01:00pm 23.0 19.2 13.5 55 5.5 NNE 26 41 14 22 1026.3 1026.2 0.0
27/12:30pm 22.3 18.7 13.1 56 5.3 NNE 24 35 13 19 1026.6 1026.5 0.0
27/12:00pm 22.2 19.1 13.3 57 5.1 NE 22 32 12 17 1026.9 1026.8 0.0
27/11:30am 22.0 19.7 13.1 57 5.1 NE 17 28 9 15 1027.2 1027.1 0.0
27/11:00am 21.9 20.1 13.3 58 4.9 NE 15 24 8 13 1027.4 1027.3 0.0
27/10:30am 21.3 19.7 12.7 58 4.9 NE 13 19 7 10 1027.6 1027.5 0.0
27/10:00am 20.3 18.5 12.0 59 4.6 NE 13 22 7 12 1027.6 1027.5 0.0
27/09:30am 19.5 18.7 12.8 65 3.8 ENE 9 15 5 8 1027.5 1027.4 0.0
27/09:00am 18.2 17.5 11.5 65 3.6 ESE 6 7 3 4 1027.5 1027.4 0.0
27/08:30am 17.4 17.4 11.2 67 3.4 SSE 2 6 1 3 1027.4 1027.3 0.0
27/08:00am 16.1 15.4 11.3 73 2.6 N 6 11 3 6 1027.3 1027.2 0.0
27/07:30am 13.7 12.2 10.7 82 1.6 NNW 9 13 5 7 1027.1 1027.0 0.0
27/07:00am 13.8 12.3 10.4 80 1.8 NW 9 11 5 6 1026.8 1026.7 0.0
27/06:30am 14.2 12.4 10.8 80 1.8 NNW 11 15 6 8 1026.3 1026.2 0.0
27/06:00am 13.6 12.1 10.4 81 1.7 NNW 9 13 5 7 1026.3 1026.2 0.0
27/05:30am 12.1 10.9 10.2 88 1.0 NW 7 9 4 5 1026.2 1026.1 0.0
27/05:00am 13.3 11.9 10.8 85 1.3 NNW 9 13 5 7 1026.1 1026.0 0.0

Other Formats:

Comma delimited format used in spreadsheet applications
http://www.bom.gov.au/fwo/IDT60801/IDT60801.94987.axf

JavaScript Object Notation format (JSON) in row-major order
http://www.bom.gov.au/fwo/IDT60801/IDT60801.94987.json